createdAt,value
2023-05-24T00:01:51.349Z,17.28
2023-05-24T00:04:21.271Z,17.35
2023-05-24T00:06:49.481Z,17.42
2023-05-24T00:09:17.915Z,17.44
2023-05-24T00:11:46.023Z,17.50
2023-05-24T00:14:14.425Z,17.48
2023-05-24T00:16:42.669Z,17.54
2023-05-24T00:19:12.091Z,17.45
2023-05-24T00:21:41.620Z,17.40
2023-05-24T00:24:11.189Z,17.40
2023-05-24T00:26:39.498Z,17.38
2023-05-24T00:29:07.981Z,17.33
2023-05-24T00:31:36.193Z,17.36
2023-05-24T00:34:04.607Z,17.34
2023-05-24T00:36:33.138Z,17.37
2023-05-24T00:39:03.016Z,17.40
2023-05-24T00:41:31.184Z,17.37
2023-05-24T00:43:59.665Z,17.37
2023-05-24T00:46:33.148Z,17.29
2023-05-24T00:49:02.584Z,17.39
2023-05-24T00:51:32.138Z,17.38
2023-05-24T00:54:02.166Z,17.34
2023-05-24T00:56:31.307Z,17.16
2023-05-24T00:59:00.240Z,17.21
2023-05-24T01:01:31.107Z,17.20
2023-05-24T01:04:00.976Z,17.17
2023-05-24T01:06:30.364Z,17.12
2023-05-24T01:09:14.955Z,17.23
2023-05-24T01:11:57.660Z,17.25
2023-05-24T01:14:30.423Z,17.22
2023-05-24T01:17:05.754Z,17.19
2023-05-24T01:19:57.618Z,17.17
2023-05-24T01:22:38.235Z,17.13
2023-05-24T01:25:14.247Z,17.19
2023-05-24T01:27:44.738Z,17.17
2023-05-24T01:30:14.817Z,17.18
2023-05-24T01:32:43.279Z,17.17
2023-05-24T01:35:11.922Z,17.14
2023-05-24T01:37:40.039Z,17.05
2023-05-24T01:40:10.158Z,17.01
2023-05-24T01:42:46.768Z,16.96
2023-05-24T01:45:24.203Z,16.92
2023-05-24T01:48:03.505Z,16.91
2023-05-24T01:50:35.654Z,16.98
2023-05-24T01:53:07.817Z,17.00
2023-05-24T01:55:38.286Z,17.00
2023-05-24T01:58:10.137Z,16.92
2023-05-24T02:00:41.265Z,16.81
2023-05-24T02:03:10.277Z,16.88
2023-05-24T02:05:40.073Z,16.75
2023-05-24T02:08:08.976Z,16.74
2023-05-24T02:10:38.681Z,16.73
2023-05-24T02:13:08.413Z,16.80
2023-05-24T02:15:37.024Z,16.80
2023-05-24T02:18:08.179Z,16.81
2023-05-24T02:20:37.927Z,16.81
2023-05-24T02:23:06.190Z,16.67
2023-05-24T02:25:34.684Z,16.82
2023-05-24T02:28:05.808Z,16.85
2023-05-24T02:31:29.897Z,16.89
2023-05-24T02:34:00.324Z,16.93
2023-05-24T02:36:28.966Z,16.96
2023-05-24T02:38:58.039Z,16.94
2023-05-24T02:41:26.612Z,16.91
2023-05-24T02:43:54.812Z,16.82
2023-05-24T02:46:23.276Z,16.87
2023-05-24T02:48:51.398Z,16.95
2023-05-24T02:51:21.236Z,16.99
2023-05-24T02:53:49.887Z,16.95
2023-05-24T02:56:18.761Z,16.88
2023-05-24T02:58:47.038Z,16.83
2023-05-24T03:01:15.537Z,16.63
2023-05-24T03:03:43.741Z,16.91
2023-05-24T03:06:14.144Z,16.91
2023-05-24T03:08:43.948Z,16.96
2023-05-24T03:11:12.328Z,17.04
2023-05-24T03:13:40.618Z,16.77
2023-05-24T03:16:09.423Z,16.81
2023-05-24T03:18:37.634Z,16.93
2023-05-24T03:21:08.510Z,16.93
2023-05-24T03:23:36.632Z,16.97
2023-05-24T03:26:07.538Z,17.01
2023-05-24T03:28:36.509Z,16.99
2023-05-24T03:31:06.896Z,17.01
2023-05-24T03:33:38.818Z,16.20
2023-05-24T03:36:09.813Z,16.45
2023-05-24T03:38:47.601Z,16.85
2023-05-24T03:41:20.790Z,16.30
2023-05-24T03:43:58.331Z,16.93
2023-05-24T03:46:32.232Z,16.93
2023-05-24T03:49:09.650Z,16.54
2023-05-24T03:51:39.616Z,16.52
2023-05-24T03:54:07.892Z,17.21
2023-05-24T03:56:38.817Z,17.39
2023-05-24T03:59:07.021Z,17.50
2023-05-24T04:01:36.718Z,17.54
2023-05-24T04:04:05.535Z,17.65
2023-05-24T04:06:36.713Z,17.81
2023-05-24T04:09:06.008Z,17.93
2023-05-24T04:11:38.788Z,18.02
2023-05-24T04:14:06.925Z,17.90
2023-05-24T04:16:35.370Z,17.99
2023-05-24T04:19:04.360Z,18.08
2023-05-24T04:21:33.448Z,18.18
2023-05-24T04:24:01.741Z,18.28
2023-05-24T04:26:30.335Z,18.31
2023-05-24T04:28:59.845Z,18.44
2023-05-24T04:31:29.616Z,18.50
2023-05-24T04:33:59.490Z,18.55
2023-05-24T04:36:28.954Z,18.59
2023-05-24T04:39:02.872Z,18.65
2023-05-24T04:41:32.429Z,18.38
2023-05-24T04:44:01.943Z,18.69
2023-05-24T04:46:31.457Z,18.51
2023-05-24T04:48:59.486Z,18.51
2023-05-24T04:51:27.973Z,18.50
2023-05-24T04:53:56.074Z,18.58
2023-05-24T04:56:24.564Z,18.60
2023-05-24T04:58:52.709Z,18.67
2023-05-24T05:01:22.644Z,18.64
2023-05-24T05:03:51.143Z,18.58
2023-05-24T05:06:19.645Z,18.58
2023-05-24T05:08:47.863Z,18.48
2023-05-24T05:11:17.178Z,18.55
2023-05-24T05:13:45.357Z,18.52
2023-05-24T05:16:14.384Z,18.53
2023-05-24T05:18:43.928Z,18.67
2023-05-24T05:21:12.525Z,18.71
2023-05-24T05:23:40.848Z,18.78
2023-05-24T05:26:10.473Z,18.92
2023-05-24T05:28:38.495Z,18.89
2023-05-24T05:31:07.005Z,18.87
2023-05-24T05:33:35.312Z,18.91
2023-05-24T05:36:05.215Z,18.82
2023-05-24T05:38:33.601Z,18.91
2023-05-24T05:41:02.048Z,18.85
2023-05-24T05:43:30.286Z,18.93
2023-05-24T05:45:58.696Z,18.87
2023-05-24T05:48:27.172Z,19.04
2023-05-24T05:50:55.885Z,19.11
2023-05-24T05:53:26.263Z,19.01
2023-05-24T05:55:54.675Z,19.08
2023-05-24T05:58:22.903Z,19.09
2023-05-24T06:00:51.324Z,19.10
2023-05-24T06:03:20.705Z,18.95
2023-05-24T06:05:49.179Z,18.94
2023-05-24T06:08:19.572Z,18.95
2023-05-24T06:10:50.622Z,19.26
2023-05-24T06:13:21.040Z,19.73
2023-05-24T06:15:50.133Z,19.89
2023-05-24T06:18:18.393Z,19.82
2023-05-24T06:20:47.002Z,20.27
2023-05-24T06:23:15.207Z,20.74
2023-05-24T06:25:44.549Z,20.70
2023-05-24T06:28:14.097Z,20.96
2023-05-24T06:30:42.731Z,21.12
2023-05-24T06:33:11.454Z,21.42
2023-05-24T06:35:39.844Z,21.89
2023-05-24T06:38:07.952Z,21.79
2023-05-24T06:40:36.565Z,22.04
2023-05-24T06:43:05.250Z,22.45
2023-05-24T06:45:35.009Z,22.52
2023-05-24T06:48:03.153Z,22.14
2023-05-24T06:50:31.995Z,22.39
2023-05-24T06:53:00.140Z,22.79
2023-05-24T06:55:28.518Z,22.60
2023-05-24T06:57:56.885Z,22.74
2023-05-24T07:00:25.503Z,23.19
2023-05-24T07:02:55.216Z,23.09
2023-05-24T07:05:23.648Z,22.52
2023-05-24T07:07:51.791Z,23.04
2023-05-24T07:10:20.215Z,22.79
2023-05-24T07:12:48.357Z,22.80
2023-05-24T07:15:16.746Z,22.40
2023-05-24T07:17:44.995Z,22.42
2023-05-24T07:20:15.232Z,22.51
2023-05-24T07:22:44.114Z,22.73
2023-05-24T07:25:12.764Z,22.58
2023-05-24T07:27:40.927Z,22.55
2023-05-24T07:30:23.632Z,22.93
2023-05-24T07:32:58.498Z,22.92
2023-05-24T07:35:29.347Z,23.08
2023-05-24T07:37:57.709Z,23.40
2023-05-24T07:40:26.700Z,23.91
2023-05-24T07:42:54.875Z,23.97
2023-05-24T07:45:23.553Z,24.00
2023-05-24T07:47:52.793Z,24.51
2023-05-24T07:50:22.593Z,24.67
2023-05-24T07:52:52.431Z,23.53
2023-05-24T07:55:21.733Z,23.94
2023-05-24T07:57:49.915Z,23.45
2023-05-24T08:00:20.190Z,23.13
2023-05-24T08:02:48.717Z,23.26
2023-05-24T08:05:17.858Z,23.21
2023-05-24T08:07:46.686Z,23.08
2023-05-24T08:10:16.708Z,23.33
2023-05-24T08:12:47.558Z,23.69
2023-05-24T08:15:15.975Z,23.39
2023-05-24T08:17:44.195Z,23.70
2023-05-24T08:20:14.733Z,24.06
2023-05-24T08:22:43.469Z,24.90
2023-05-24T08:25:12.157Z,24.56
2023-05-24T08:27:41.828Z,24.62
2023-05-24T08:30:11.085Z,24.34
2023-05-24T08:32:39.385Z,24.80
2023-05-24T08:35:20.174Z,24.64
2023-05-24T08:37:49.235Z,24.53
2023-05-24T08:40:18.534Z,25.19
2023-05-24T08:42:50.942Z,25.31
2023-05-24T08:45:21.316Z,25.67
2023-05-24T08:47:51.712Z,25.16
2023-05-24T08:50:21.441Z,24.05
2023-05-24T08:52:51.100Z,24.95
2023-05-24T08:55:20.684Z,25.48
2023-05-24T08:57:51.476Z,25.38
2023-05-24T09:00:22.389Z,26.15
2023-05-24T09:02:51.266Z,26.38
2023-05-24T09:05:21.936Z,25.70
2023-05-24T09:07:51.076Z,25.17
2023-05-24T09:10:21.499Z,25.05
2023-05-24T09:12:56.309Z,25.20
2023-05-24T09:15:25.077Z,24.69
2023-05-24T09:17:53.276Z,24.75
2023-05-24T09:20:22.446Z,24.85
2023-05-24T09:22:54.180Z,25.23
2023-05-24T09:25:22.860Z,24.98
2023-05-24T09:27:53.709Z,25.40
2023-05-24T09:30:22.476Z,25.86
2023-05-24T09:32:58.368Z,26.18
2023-05-24T09:35:28.472Z,25.60
2023-05-24T09:37:59.942Z,25.45
2023-05-24T09:40:36.970Z,25.50
2023-05-24T09:43:09.120Z,25.59
2023-05-24T09:45:44.369Z,25.18
2023-05-24T09:48:13.487Z,24.81
2023-05-24T09:50:42.556Z,24.66
2023-05-24T09:53:10.872Z,24.32
2023-05-24T09:55:39.704Z,23.88
2023-05-24T09:58:11.690Z,23.89
2023-05-24T10:00:42.283Z,24.48
2023-05-24T10:03:13.325Z,24.23
2023-05-24T10:05:45.427Z,24.05
2023-05-24T10:08:14.488Z,24.23
2023-05-24T10:10:43.630Z,24.36
2023-05-24T10:13:15.988Z,24.47
2023-05-24T10:15:45.507Z,24.26
2023-05-24T10:18:14.388Z,24.17
2023-05-24T10:20:44.082Z,23.93
2023-05-24T10:23:17.696Z,24.00
2023-05-24T10:25:51.149Z,23.71
2023-05-24T10:28:23.530Z,24.03
2023-05-24T10:31:03.524Z,24.12
2023-05-24T10:33:35.151Z,24.36
2023-05-24T10:36:07.950Z,24.13
2023-05-24T10:38:39.730Z,24.13
2023-05-24T10:41:08.908Z,23.96
2023-05-24T10:43:39.226Z,23.76
2023-05-24T10:46:10.759Z,23.81
2023-05-24T10:48:40.859Z,23.96
2023-05-24T10:51:33.542Z,23.99
2023-05-24T10:54:18.870Z,24.35
2023-05-24T10:56:49.396Z,24.35
2023-05-24T10:59:40.362Z,24.10
2023-05-24T11:02:13.891Z,23.90
2023-05-24T11:04:44.474Z,24.05
2023-05-24T11:07:15.981Z,23.83
2023-05-24T11:09:52.728Z,23.98
2023-05-24T11:12:21.711Z,23.90
2023-05-24T11:14:52.969Z,24.15
2023-05-24T11:17:23.115Z,24.12
2023-05-24T11:19:53.569Z,24.15
2023-05-24T11:22:25.812Z,23.78
2023-05-24T11:24:54.776Z,24.13
2023-05-24T11:27:23.737Z,24.15
2023-05-24T11:29:53.868Z,24.43
2023-05-24T11:32:24.177Z,24.83
2023-05-24T11:34:52.620Z,24.25
2023-05-24T11:37:31.496Z,24.38
2023-05-24T11:40:10.392Z,24.38
2023-05-24T11:42:39.414Z,24.27
2023-05-24T11:45:11.012Z,24.08
2023-05-24T11:47:39.886Z,24.54
2023-05-24T11:50:08.898Z,24.29
2023-05-24T11:52:40.082Z,24.27
2023-05-24T11:55:09.016Z,24.36
2023-05-24T11:57:40.219Z,24.39
2023-05-24T12:00:17.140Z,24.46
2023-05-24T12:02:46.880Z,24.53
2023-05-24T12:05:15.328Z,24.54
2023-05-24T12:07:48.865Z,24.50
2023-05-24T12:10:17.299Z,24.71
2023-05-24T12:12:46.399Z,25.02
2023-05-24T12:15:18.670Z,25.19
2023-05-24T12:17:50.263Z,25.24
2023-05-24T12:20:20.670Z,24.74
2023-05-24T12:22:51.787Z,24.78
2023-05-24T12:25:21.969Z,25.08
2023-05-24T12:27:56.056Z,25.01
2023-05-24T12:30:26.635Z,25.18
2023-05-24T12:32:55.696Z,25.50
2023-05-24T12:35:24.131Z,24.92
2023-05-24T12:38:00.942Z,24.53
2023-05-24T12:40:29.192Z,25.37
2023-05-24T12:42:59.299Z,25.31
2023-05-24T12:45:29.195Z,25.13
2023-05-24T12:47:59.690Z,25.51
2023-05-24T12:50:28.432Z,25.18
2023-05-24T12:52:57.806Z,24.75
2023-05-24T12:55:28.224Z,25.11
2023-05-24T12:57:57.346Z,25.23
2023-05-24T13:00:27.840Z,25.38
2023-05-24T13:03:00.134Z,25.50
2023-05-24T13:05:30.090Z,25.98
2023-05-24T13:07:58.974Z,25.12
2023-05-24T13:10:28.560Z,24.90
2023-05-24T13:12:57.535Z,25.23
2023-05-24T13:15:27.319Z,25.01
2023-05-24T13:17:57.338Z,25.16
2023-05-24T13:20:25.714Z,25.14
2023-05-24T13:22:54.241Z,25.14
2023-05-24T13:25:22.781Z,25.00
2023-05-24T13:27:51.385Z,25.06
2023-05-24T13:30:27.604Z,25.11
2023-05-24T13:32:59.820Z,24.74
2023-05-24T13:35:27.982Z,24.77
2023-05-24T13:37:58.079Z,24.73
2023-05-24T13:40:26.370Z,24.77
2023-05-24T13:42:57.932Z,25.00
2023-05-24T13:45:26.240Z,24.67
2023-05-24T13:47:58.400Z,24.48
2023-05-24T13:50:27.998Z,24.80
2023-05-24T13:52:58.807Z,24.43
2023-05-24T13:55:28.194Z,24.55
2023-05-24T13:57:57.312Z,24.83
2023-05-24T14:00:26.009Z,24.96
2023-05-24T14:02:54.485Z,24.98
2023-05-24T14:05:27.883Z,25.21
2023-05-24T14:08:04.067Z,25.20
2023-05-24T14:10:32.281Z,24.68
2023-05-24T14:13:20.656Z,24.93
2023-05-24T14:15:49.872Z,25.30
2023-05-24T14:18:18.594Z,25.30
2023-05-24T14:20:46.925Z,25.00
2023-05-24T14:23:17.106Z,24.90
2023-05-24T14:25:47.018Z,25.12
2023-05-24T14:28:15.696Z,25.04
2023-05-24T14:30:43.910Z,25.08
2023-05-24T14:33:13.615Z,25.44
2023-05-24T14:35:42.259Z,25.52
2023-05-24T14:38:12.197Z,25.39
2023-05-24T14:40:42.433Z,25.37
2023-05-24T14:43:11.363Z,25.76
2023-05-24T14:45:41.408Z,25.81
2023-05-24T14:48:11.940Z,25.61
2023-05-24T14:50:41.489Z,25.16
2023-05-24T14:53:12.349Z,25.01
2023-05-24T14:55:44.076Z,25.44
2023-05-24T14:58:14.358Z,25.59
2023-05-24T15:00:44.260Z,25.79
2023-05-24T15:03:14.779Z,25.65
2023-05-24T15:05:43.277Z,25.82
2023-05-24T15:08:12.279Z,25.77
2023-05-24T15:10:45.366Z,25.73
2023-05-24T15:13:14.199Z,25.54
2023-05-24T15:15:43.314Z,25.47
2023-05-24T15:18:11.908Z,25.61
2023-05-24T15:20:40.359Z,25.19
2023-05-24T15:23:10.747Z,25.21
2023-05-24T15:25:39.250Z,24.85
2023-05-24T15:28:10.680Z,24.99
2023-05-24T15:30:38.845Z,25.00
2023-05-24T15:33:07.612Z,25.03
2023-05-24T15:35:36.390Z,25.04
2023-05-24T15:38:05.009Z,24.86
2023-05-24T15:40:33.211Z,24.64
2023-05-24T15:43:02.116Z,24.67
2023-05-24T15:45:31.717Z,25.29
2023-05-24T15:48:00.267Z,25.87
2023-05-24T15:50:45.672Z,26.24
2023-05-24T15:53:18.292Z,26.25
2023-05-24T15:55:47.404Z,26.08
2023-05-24T15:58:16.016Z,25.78
2023-05-24T16:00:45.759Z,25.24
2023-05-24T16:03:15.663Z,24.99
2023-05-24T16:05:44.386Z,25.17
2023-05-24T16:08:13.267Z,24.67
2023-05-24T16:10:41.770Z,24.59
2023-05-24T16:13:10.734Z,24.47
2023-05-24T16:15:40.967Z,24.05
2023-05-24T16:18:10.953Z,23.72
2023-05-24T16:20:39.278Z,23.63
2023-05-24T16:23:07.701Z,23.64
2023-05-24T16:25:36.082Z,24.11
2023-05-24T16:28:04.808Z,24.09
2023-05-24T16:30:32.956Z,23.90
2023-05-24T16:33:01.563Z,23.93
2023-05-24T16:35:31.638Z,23.91
2023-05-24T16:38:00.307Z,23.65
2023-05-24T16:40:29.289Z,23.65
2023-05-24T16:42:57.945Z,23.71
2023-05-24T16:45:26.067Z,23.95
2023-05-24T16:47:54.810Z,24.08
2023-05-24T16:50:23.142Z,24.65
2023-05-24T16:52:52.969Z,24.81
2023-05-24T16:55:21.348Z,23.84
2023-05-24T16:57:50.852Z,23.82
2023-05-24T17:00:19.190Z,23.68
2023-05-24T17:02:47.899Z,23.50
2023-05-24T17:05:16.601Z,23.26
2023-05-24T17:07:47.486Z,23.12
2023-05-24T17:10:19.038Z,23.28
2023-05-24T17:12:49.208Z,23.30
2023-05-24T17:15:17.389Z,23.30
2023-05-24T17:17:46.110Z,23.40
2023-05-24T17:20:14.657Z,23.44
2023-05-24T17:22:43.152Z,23.75
2023-05-24T17:25:11.504Z,23.77
2023-05-24T17:27:43.065Z,23.49
2023-05-24T17:30:11.783Z,23.30
2023-05-24T17:32:40.322Z,23.18
2023-05-24T17:35:10.387Z,23.06
2023-05-24T17:37:39.243Z,23.11
2023-05-24T17:40:08.738Z,22.72
2023-05-24T17:42:37.127Z,22.97
2023-05-24T17:45:09.184Z,22.93
2023-05-24T17:47:37.941Z,23.14
2023-05-24T17:50:08.972Z,23.27
2023-05-24T17:52:37.464Z,23.36
2023-05-24T17:55:07.324Z,23.37
2023-05-24T17:57:35.784Z,23.34
2023-05-24T18:00:04.073Z,23.37
2023-05-24T18:02:34.509Z,23.33
2023-05-24T18:05:02.806Z,23.28
2023-05-24T18:07:31.818Z,23.09
2023-05-24T18:10:00.789Z,23.14
2023-05-24T18:12:29.867Z,22.93
2023-05-24T18:14:57.969Z,22.80
2023-05-24T18:17:27.349Z,22.71
2023-05-24T18:19:57.013Z,22.38
2023-05-24T18:22:25.531Z,22.01
2023-05-24T18:24:53.685Z,21.97
2023-05-24T18:27:22.082Z,21.74
2023-05-24T18:29:50.191Z,21.64
2023-05-24T18:32:19.595Z,21.74
2023-05-24T18:34:48.216Z,21.69
2023-05-24T18:37:19.815Z,21.58
2023-05-24T18:39:48.544Z,21.59
2023-05-24T18:42:17.141Z,21.52
2023-05-24T18:44:45.371Z,21.44
2023-05-24T18:47:14.650Z,21.38
2023-05-24T18:49:42.811Z,21.16
2023-05-24T18:52:11.530Z,21.11
2023-05-24T18:54:41.775Z,21.08
2023-05-24T18:57:10.523Z,21.01
2023-05-24T18:59:39.332Z,21.02
2023-05-24T19:02:09.876Z,21.08
2023-05-24T19:04:38.766Z,21.07
2023-05-24T19:07:10.503Z,20.88
2023-05-24T19:09:39.392Z,20.89
2023-05-24T19:12:11.537Z,20.91
2023-05-24T19:14:41.980Z,20.67
2023-05-24T19:17:10.701Z,20.46
2023-05-24T19:19:39.053Z,20.35
2023-05-24T19:22:07.509Z,20.25
2023-05-24T19:24:35.832Z,20.11
2023-05-24T19:27:04.583Z,19.97
2023-05-24T19:29:38.378Z,19.82
2023-05-24T19:32:08.260Z,19.90
2023-05-24T19:34:42.101Z,19.79
2023-05-24T19:37:10.994Z,19.83
2023-05-24T19:39:39.322Z,19.95
2023-05-24T19:42:07.859Z,20.00
2023-05-24T19:44:37.643Z,20.05
2023-05-24T19:47:06.757Z,20.00
2023-05-24T19:49:35.153Z,19.97
2023-05-24T19:52:03.875Z,19.91
2023-05-24T19:54:33.340Z,19.86
2023-05-24T19:57:03.057Z,19.85
2023-05-24T19:59:34.636Z,19.68
2023-05-24T20:02:04.677Z,19.74
2023-05-24T20:04:33.071Z,19.59
2023-05-24T20:07:02.171Z,19.56
2023-05-24T20:09:30.302Z,19.52
2023-05-24T20:12:01.752Z,19.47
2023-05-24T20:14:35.236Z,19.31
2023-05-24T20:17:05.671Z,19.37
2023-05-24T20:19:34.180Z,19.41
2023-05-24T20:22:03.832Z,19.27
2023-05-24T20:24:32.485Z,19.27
2023-05-24T20:27:02.354Z,19.20
2023-05-24T20:29:30.657Z,19.00
2023-05-24T20:31:59.466Z,19.10
2023-05-24T20:34:29.596Z,18.99
2023-05-24T20:36:58.402Z,18.88
2023-05-24T20:39:26.732Z,18.74
2023-05-24T20:41:56.719Z,18.88
2023-05-24T20:44:26.591Z,18.67
2023-05-24T20:46:55.046Z,18.63
2023-05-24T20:49:24.452Z,18.48
2023-05-24T20:51:54.897Z,18.53
2023-05-24T20:54:23.006Z,18.45
2023-05-24T20:56:54.275Z,18.37
2023-05-24T20:59:22.509Z,18.41
2023-05-24T21:01:51.131Z,18.41
2023-05-24T21:04:21.630Z,18.25
2023-05-24T21:06:50.085Z,18.34
2023-05-24T21:09:19.582Z,18.29
2023-05-24T21:11:48.004Z,18.22
2023-05-24T21:14:16.173Z,18.12
2023-05-24T21:16:44.652Z,17.89
2023-05-24T21:19:12.832Z,17.78
2023-05-24T21:21:41.305Z,17.95
2023-05-24T21:24:09.406Z,17.90
2023-05-24T21:26:42.351Z,17.93
2023-05-24T21:29:11.950Z,17.73
2023-05-24T21:31:42.337Z,17.71
2023-05-24T21:34:12.320Z,17.57
2023-05-24T21:36:40.762Z,17.60
2023-05-24T21:39:09.768Z,17.38
2023-05-24T21:41:39.893Z,17.47
2023-05-24T21:44:09.288Z,17.59
2023-05-24T21:46:37.731Z,17.54
2023-05-24T21:49:05.943Z,17.45
2023-05-24T21:51:34.444Z,17.45
2023-05-24T21:54:11.396Z,17.47
2023-05-24T21:56:41.579Z,17.48
2023-05-24T21:59:09.735Z,17.44
2023-05-24T22:01:38.567Z,17.53
2023-05-24T22:04:12.971Z,17.29
2023-05-24T22:06:42.701Z,17.39
2023-05-24T22:09:10.629Z,17.31
2023-05-24T22:11:40.931Z,17.36
2023-05-24T22:14:12.811Z,17.28
2023-05-24T22:16:41.702Z,17.36
2023-05-24T22:19:15.028Z,17.25
2023-05-24T22:21:48.227Z,17.15
2023-05-24T22:24:16.535Z,17.09
2023-05-24T22:26:46.820Z,17.14
2023-05-24T22:29:16.431Z,17.10
2023-05-24T22:31:45.050Z,17.00
2023-05-24T22:34:14.402Z,16.98
2023-05-24T22:36:44.176Z,17.00
2023-05-24T22:39:12.049Z,17.02
2023-05-24T22:41:40.430Z,16.82
2023-05-24T22:44:08.555Z,16.79
2023-05-24T22:46:38.451Z,16.87
2023-05-24T22:49:06.647Z,16.87
2023-05-24T22:51:37.917Z,16.75
2023-05-24T22:54:06.249Z,16.68
2023-05-24T22:56:40.063Z,16.73
2023-05-24T22:59:08.778Z,16.68
2023-05-24T23:01:39.945Z,16.73
2023-05-24T23:04:20.734Z,16.75
2023-05-24T23:06:52.679Z,16.60
2023-05-24T23:09:34.009Z,16.66
2023-05-24T23:12:08.470Z,16.54
2023-05-24T23:14:39.158Z,16.58
2023-05-24T23:17:14.257Z,16.58
2023-05-24T23:19:44.377Z,16.61
2023-05-24T23:22:13.904Z,16.33
2023-05-24T23:24:45.150Z,16.40
2023-05-24T23:27:13.662Z,16.34
2023-05-24T23:29:43.298Z,16.15
2023-05-24T23:32:13.121Z,16.10
2023-05-24T23:34:41.323Z,16.19
2023-05-24T23:37:13.939Z,16.16
2023-05-24T23:39:42.053Z,16.02
2023-05-24T23:42:10.469Z,15.92
2023-05-24T23:44:38.593Z,15.81
2023-05-24T23:47:07.150Z,15.86
2023-05-24T23:49:39.323Z,15.81
2023-05-24T23:52:16.533Z,15.68
2023-05-24T23:54:44.652Z,15.60
2023-05-24T23:57:13.227Z,15.67
2023-05-24T23:59:41.383Z,15.64
